Time;durP1;ratioP1;P1;durP2;ratioP2;P2;SDS_P1;SDS_P2;PMS_P1;PMS_P2;Temp;Humidity;BMP_temperature;BMP_pressure;BME280_temperature;BME280_humidity;BME280_pressure;Samples;Min_cycle;Max_cycle;Signal;HPM_P1;HPM_P2
2022/01/09 00:00:42;;;;;;;12.30;7.07;;;;;;;-1.04;57.70;100314.04;1683762;83;21529;-61
2022/01/09 00:03:09;;;;;;;14.07;7.78;;;;;;;-1.03;57.65;100305.73;1662608;84;21066;-64
2022/01/09 00:05:35;;;;;;;15.93;7.30;;;;;;;-1.06;57.25;100296.80;1663807;84;21120;-62
2022/01/09 00:08:02;;;;;;;13.70;7.43;;;;;;;-1.08;57.17;100292.98;1666948;84;20982;-62
2022/01/09 00:10:30;;;;;;;;;;;;;;;-1.16;57.41;100303.20;1673831;84;21161;-62
2022/01/09 00:12:57;;;;;;;7.70;6.60;;;;;;;-1.19;57.48;100295.56;1673366;83;20207;-61
2022/01/09 00:15:23;;;;;;;12.07;7.70;;;;;;;-1.23;57.78;100291.52;1682408;83;21056;-64
2022/01/09 00:17:49;;;;;;;7.28;5.83;;;;;;;-1.18;57.87;100288.92;1689797;83;21538;-75
2022/01/09 00:20:16;;;;;;;9.28;6.67;;;;;;;-1.46;57.71;100235.70;1680761;83;21476;-61
2022/01/09 00:22:46;;;;;;;9.38;6.45;;;;;;;-1.02;57.53;100286.01;1686220;82;21639;-61
2022/01/09 00:25:19;;;;;;;10.27;6.33;;;;;;;-1.01;57.33;100278.50;1681229;83;21020;-61
2022/01/09 00:27:46;;;;;;;10.10;6.00;;;;;;;-1.06;57.06;100281.93;1673563;83;21020;-61
2022/01/09 00:30:15;;;;;;;9.43;5.83;;;;;;;-1.08;57.17;100273.36;1670917;83;21025;-62
2022/01/09 00:32:42;;;;;;;10.50;6.23;;;;;;;-1.09;57.26;100268.24;1678708;83;21013;-63
2022/01/09 00:35:12;;;;;;;7.73;4.60;;;;;;;-1.12;57.13;100269.80;1683801;79;21013;-63
2022/01/09 00:37:39;;;;;;;8.07;4.23;;;;;;;-1.20;57.12;100272.98;1688782;83;21473;-61
2022/01/09 00:40:08;;;;;;;9.30;5.97;;;;;;;-1.31;57.37;100265.11;1680190;83;21041;-62
2022/01/09 00:42:34;;;;;;;8.67;5.70;;;;;;;-1.28;57.52;100257.87;1679046;83;21062;-71
2022/01/09 00:45:04;;;;;;;9.37;6.27;;;;;;;-1.27;57.61;100249.06;1685540;83;22140;-63
2022/01/09 00:47:32;;;;;;;10.67;6.67;;;;;;;-1.24;57.77;100248.02;1675457;83;21069;-61
2022/01/09 00:49:58;;;;;;;7.60;5.25;;;;;;;-1.25;57.73;100249.77;1666739;83;21040;-61
2022/01/09 00:52:24;;;;;;;10.72;5.72;;;;;;;-1.32;57.68;100248.56;1675470;83;21117;-61
2022/01/09 00:54:50;;;;;;;7.78;5.40;;;;;;;-1.36;58.03;100243.20;1679806;83;21045;-61
2022/01/09 00:57:16;;;;;;;11.53;5.53;;;;;;;-1.33;58.12;100240.37;1654347;81;21544;-62
2022/01/09 00:59:42;;;;;;;8.73;5.33;;;;;;;-1.31;58.30;100237.16;1641956;85;21602;-70
2022/01/09 01:02:09;;;;;;;11.03;5.87;;;;;;;-1.22;58.49;100246.12;1653534;84;21060;-66
2022/01/09 01:04:38;;;;;;;7.30;4.47;;;;;;;-1.20;58.26;100240.30;1650105;85;21078;-68
2022/01/09 01:07:05;;;;;;;8.50;4.87;;;;;;;-1.25;58.50;100225.41;1650181;85;21550;-62
2022/01/09 01:09:31;;;;;;;12.05;6.40;;;;;;;-1.30;58.77;100220.99;1654982;85;21634;-63
2022/01/09 01:12:00;;;;;;;13.47;5.97;;;;;;;-1.34;58.98;100228.23;1668452;83;21002;-61
2022/01/09 01:14:29;;;;;;;8.87;6.00;;;;;;;-1.30;58.98;100220.99;1680464;83;21114;-63
2022/01/09 01:16:55;;;;;;;10.73;6.00;;;;;;;-1.24;58.97;100214.02;1679089;83;21057;-61
2022/01/09 01:19:21;;;;;;;;;;;;;;;-1.22;59.05;100214.73;1685012;83;21031;-61
2022/01/09 01:21:48;;;;;;;10.20;5.17;;;;;;;-1.32;59.45;100215.05;1686860;83;20134;-62
2022/01/09 01:24:14;;;;;;;8.23;5.33;;;;;;;-1.34;59.48;100206.48;1675968;83;21690;-64
2022/01/09 01:26:41;;;;;;;10.00;6.40;;;;;;;-1.39;60.06;100201.13;1676626;83;21533;-63
2022/01/09 01:29:07;;;;;;;8.70;5.65;;;;;;;-1.43;60.26;100195.78;1678771;83;21569;-63
2022/01/09 01:31:33;;;;;;;12.05;6.40;;;;;;;-1.40;60.26;100196.84;1672080;83;21053;-61
2022/01/09 01:33:59;;;;;;;11.28;5.95;;;;;;;-1.44;60.67;100190.66;1663981;82;21117;-61
2022/01/09 01:36:25;;;;;;;10.70;7.05;;;;;;;-1.46;60.91;100189.94;1649259;85;21129;-61
2022/01/09 01:38:53;;;;;;;8.98;5.67;;;;;;;-1.48;61.06;100190.05;1640348;85;21593;-62
2022/01/09 01:41:19;;;;;;;12.20;6.80;;;;;;;-1.46;61.08;100181.62;1646311;85;21142;-62
2022/01/09 01:43:46;;;;;;;9.05;6.15;;;;;;;-1.45;61.44;100179.37;1641092;85;21070;-61
2022/01/09 01:46:12;;;;;;;;;;;;;;;-1.53;62.71;100169.13;1654556;84;21534;-62
2022/01/09 01:48:38;;;;;;;11.07;6.40;;;;;;;-1.58;63.13;100165.08;1646568;85;20149;-63
2022/01/09 01:51:05;;;;;;;11.12;5.35;;;;;;;-1.68;63.92;100149.70;1652707;85;21027;-62
2022/01/09 01:53:32;;;;;;;9.10;6.30;;;;;;;-1.77;65.42;100169.53;1634660;85;21077;-62
2022/01/09 01:56:01;;;;;;;13.25;7.22;;;;;;;-1.84;66.68;100153.94;1652179;84;21374;-61
2022/01/09 01:58:27;;;;;;;10.93;6.67;;;;;;;-1.89;67.55;100156.05;1666726;84;21609;-63
2022/01/09 02:00:53;;;;;;;12.15;7.05;;;;;;;-1.97;68.54;100152.70;1660785;84;21590;-72
2022/01/09 02:03:20;;;;;;;;;;;;;;;-2.04;69.55;100165.83;1651143;85;21040;-63
2022/01/09 02:05:46;;;;;;;9.73;6.93;;;;;;;-2.06;69.94;100142.09;1645625;85;20290;-61
2022/01/09 02:08:13;;;;;;;17.30;7.60;;;;;;;-2.11;70.85;100138.97;1655115;85;21193;-60
2022/01/09 02:10:42;;;;;;;12.43;8.00;;;;;;;-2.19;71.77;100128.61;1659499;85;20971;-62
2022/01/09 02:13:09;;;;;;;15.13;8.53;;;;;;;-2.23;72.42;100126.34;1642928;85;21106;-62
2022/01/09 02:15:42;;;;;;;11.27;7.20;;;;;;;-2.64;72.70;100048.77;1598366;88;21494;-63
2022/01/09 02:18:16;;;;;;;11.63;6.70;;;;;;;-2.24;73.08;100112.47;1589146;88;21018;-62
2022/01/09 02:20:43;;;;;;;13.33;7.83;;;;;;;-2.32;74.07;100105.64;1647444;85;21082;-62
2022/01/09 02:23:11;;;;;;;14.03;8.37;;;;;;;-2.51;75.76;100105.31;1622255;85;21528;-63
2022/01/09 02:25:39;;;;;;;13.93;8.10;;;;;;;-2.65;77.01;100101.09;1622754;86;21532;-61
2022/01/09 02:28:07;;;;;;;15.53;8.73;;;;;;;-2.63;77.70;100083.55;1619356;86;21033;-61
2022/01/09 02:30:34;;;;;;;9.00;6.67;;;;;;;-2.65;78.05;100091.48;1643083;86;21139;-61
2022/01/09 02:33:02;;;;;;;13.32;9.23;;;;;;;-2.61;78.18;100099.92;1632563;86;21062;-61
2022/01/09 02:35:28;;;;;;;13.20;7.80;;;;;;;-2.58;78.08;100087.94;1636705;86;21071;-61
2022/01/09 02:37:54;;;;;;;11.75;7.92;;;;;;;-2.69;78.60;100082.20;1634182;86;21075;-61
2022/01/09 02:40:22;;;;;;;14.28;8.38;;;;;;;-2.63;78.71;100082.23;1619618;86;21036;-64
2022/01/09 02:42:50;;;;;;;14.37;7.87;;;;;;;-2.59;78.90;100085.81;1632940;86;21162;-61
2022/01/09 02:45:22;;;;;;;16.00;8.60;;;;;;;-2.60;79.21;100086.77;1631211;86;21068;-63
2022/01/09 02:47:52;;;;;;;12.67;7.97;;;;;;;-2.62;79.42;100082.58;1638020;86;21129;-60
2022/01/09 02:52:53;;;;;;;18.10;8.87;;;;;;;-2.63;79.60;100074.41;1625988;86;21036;-61
2022/01/09 02:55:21;;;;;;;13.53;7.70;;;;;;;-2.65;79.93;100069.30;1642680;85;21508;-63
2022/01/09 02:57:52;;;;;;;13.10;8.30;;;;;;;-2.75;80.18;100068.27;1621015;86;21051;-63
2022/01/09 03:00:23;;;;;;;13.03;7.53;;;;;;;-2.75;80.25;100065.22;1630329;86;21163;-60
2022/01/09 03:02:49;;;;;;;16.37;9.07;;;;;;;-2.71;80.50;100056.70;1662997;84;20974;-62
2022/01/09 03:05:16;;;;;;;17.27;8.90;;;;;;;-2.70;80.68;100064.88;1660165;84;21031;-61
2022/01/09 03:07:44;;;;;;;14.78;9.38;;;;;;;-2.71;80.84;100059.31;1604143;87;21170;-62
2022/01/09 03:10:13;;;;;;;15.90;8.40;;;;;;;-2.70;80.84;100064.05;1664022;84;21063;-63
2022/01/09 03:12:41;;;;;;;15.40;10.17;;;;;;;-2.79;80.82;100057.25;1666463;84;21029;-62
2022/01/09 03:15:10;;;;;;;12.07;7.03;;;;;;;-2.68;80.90;100051.23;1597327;87;21102;-61
2022/01/09 03:17:37;;;;;;;21.13;10.23;;;;;;;-2.63;80.98;100046.53;1666402;84;21620;-62
2022/01/09 03:20:09;;;;;;;13.67;9.10;;;;;;;-2.57;80.92;100046.56;1674422;84;21256;-66
2022/01/09 03:22:35;;;;;;;14.37;9.63;;;;;;;-2.61;80.86;100044.64;1675686;82;21036;-62
2022/01/09 03:25:05;;;;;;;16.73;9.97;;;;;;;-2.59;80.85;100038.02;1663139;85;22398;-62
2022/01/09 03:27:32;;;;;;;14.17;9.30;;;;;;;-2.54;80.90;100034.61;1660181;85;21016;-62
2022/01/09 03:29:59;;;;;;;15.88;10.63;;;;;;;-2.55;80.55;100032.45;1650478;85;21091;-62
2022/01/09 03:32:25;;;;;;;;;;;;;;;-2.49;80.13;100034.25;1647926;85;21690;-64
2022/01/09 03:34:51;;;;;;;17.93;9.10;;;;;;;-2.47;80.07;100034.97;1656400;85;20153;-63
2022/01/09 03:37:17;;;;;;;14.03;8.00;;;;;;;-2.53;80.11;100029.73;1654282;85;21572;-62
2022/01/09 03:39:43;;;;;;;18.32;9.18;;;;;;;-2.53;80.30;100029.73;1652381;85;21135;-61
2022/01/09 03:42:09;;;;;;;12.18;9.28;;;;;;;-2.48;80.21;100026.80;1653234;85;21009;-62
2022/01/09 03:44:35;;;;;;;15.58;9.15;;;;;;;-2.51;80.55;100027.84;1653747;85;21572;-62
2022/01/09 03:47:02;;;;;;;13.90;7.87;;;;;;;-2.45;80.54;100022.64;1653870;85;21586;-61
2022/01/09 03:49:29;;;;;;;14.00;8.03;;;;;;;-2.40;80.79;100018.75;1650117;85;21543;-61
2022/01/09 03:51:56;;;;;;;19.25;10.50;;;;;;;-2.35;80.55;100012.73;1651325;85;21056;-62
2022/01/09 03:54:23;;;;;;;16.80;9.03;;;;;;;-2.29;80.43;100007.52;1651044;85;21482;-61
2022/01/09 03:56:50;;;;;;;;;;;;;;;-2.27;80.31;100006.94;1658630;85;21054;-60
2022/01/09 03:59:18;;;;;;;20.12;11.20;;;;;;;-2.20;79.95;100013.37;1658874;85;20292;-62
2022/01/09 04:01:46;;;;;;;11.63;7.73;;;;;;;-2.20;79.86;100009.45;1653901;85;21078;-62
2022/01/09 04:04:12;;;;;;;16.27;9.37;;;;;;;-2.18;79.72;100007.55;1646315;85;21063;-61
2022/01/09 04:06:45;;;;;;;12.63;7.97;;;;;;;-2.24;79.59;99994.97;1653553;85;21496;-61
2022/01/09 04:09:17;;;;;;;13.40;8.00;;;;;;;-2.22;79.58;99997.47;1649299;85;21188;-61
2022/01/09 04:11:40;;;;;;;17.33;8.13;;;;;;;-2.21;79.52;99992.11;1656975;85;21079;-61
2022/01/09 04:14:06;;;;;;;12.63;7.43;;;;;;;-2.20;79.44;99993.78;1659944;85;21034;-62
2022/01/09 04:16:33;;;;;;;13.70;7.03;;;;;;;-2.23;79.51;99994.00;1665382;85;21052;-60
2022/01/09 04:18:59;;;;;;;13.28;7.65;;;;;;;-2.28;79.77;99993.98;1655810;85;21001;-65
2022/01/09 04:21:26;;;;;;;11.38;8.10;;;;;;;-2.30;80.00;99987.57;1649828;85;21024;-62
2022/01/09 04:23:52;;;;;;;14.03;7.83;;;;;;;-2.27;79.96;99986.05;1654321;85;21080;-62
2022/01/09 04:26:20;;;;;;;12.93;8.25;;;;;;;-2.20;79.96;99984.65;1651827;85;21017;-63
2022/01/09 04:28:46;;;;;;;15.13;7.90;;;;;;;-2.13;79.91;99977.65;1624982;86;21586;-62
2022/01/09 04:31:13;;;;;;;13.15;8.35;;;;;;;-2.07;79.77;99973.27;1646895;85;21097;-61
2022/01/09 04:33:42;;;;;;;12.33;7.20;;;;;;;-2.03;79.55;99970.32;1653063;85;20996;-61
2022/01/09 04:36:08;;;;;;;11.60;7.83;;;;;;;-2.00;79.35;99973.16;1655125;85;21600;-61
2022/01/09 04:38:34;;;;;;;11.88;8.53;;;;;;;-2.00;79.29;99973.16;1649412;85;21071;-68
2022/01/09 04:41:00;;;;;;;12.28;8.38;;;;;;;-2.01;79.30;99967.59;1648847;85;21060;-60
2022/01/09 04:43:28;;;;;;;15.85;9.48;;;;;;;-2.01;79.17;99961.89;1651615;85;21040;-66
2022/01/09 04:45:54;;;;;;;12.97;9.10;;;;;;;-2.01;79.25;99958.45;1648311;85;21572;-63
2022/01/09 04:48:20;;;;;;;15.70;8.18;;;;;;;-2.01;79.20;99950.62;1644858;85;21572;-62
2022/01/09 04:50:47;;;;;;;8.63;6.40;;;;;;;-1.96;79.33;99948.47;1657443;85;21052;-61
2022/01/09 04:53:13;;;;;;;12.73;7.97;;;;;;;-1.93;79.29;99948.23;1647779;85;21044;-59
2022/01/09 04:55:46;;;;;;;13.00;9.00;;;;;;;-1.93;79.00;99947.41;1655982;85;21021;-75
2022/01/09 04:58:11;;;;;;;12.37;8.90;;;;;;;-1.92;79.23;99944.70;1657780;85;21032;-62
2022/01/09 05:00:40;;;;;;;18.23;10.15;;;;;;;-1.96;79.10;99936.26;1656631;85;21052;-62
2022/01/09 05:03:06;;;;;;;18.87;10.30;;;;;;;-1.97;79.28;99941.11;1643673;85;21080;-62
2022/01/09 05:05:35;;;;;;;16.30;10.30;;;;;;;-1.94;79.31;99923.53;1656790;85;21044;-62
2022/01/09 05:08:01;;;;;;;14.33;9.80;;;;;;;-1.94;79.31;99923.53;1651070;85;21575;-62
2022/01/09 05:10:28;;;;;;;16.62;11.08;;;;;;;-2.01;79.67;99926.63;1648629;85;22233;-61
2022/01/09 05:12:54;;;;;;;15.15;11.05;;;;;;;-2.05;79.94;99928.30;1661521;85;21099;-61
2022/01/09 05:15:21;;;;;;;22.45;11.20;;;;;;;-2.02;80.01;99921.52;1660103;85;21041;-61
2022/01/09 05:17:50;;;;;;;17.07;10.93;;;;;;;-1.99;80.04;99922.59;1656214;85;21087;-61
2022/01/09 05:20:16;;;;;;;19.37;12.03;;;;;;;-1.97;79.87;99924.61;1650338;85;21105;-62
2022/01/09 05:22:42;;;;;;;15.45;11.57;;;;;;;-1.96;79.82;99917.12;1638994;85;21561;-62
2022/01/09 05:25:09;;;;;;;18.57;12.03;;;;;;;-1.97;79.76;99924.61;1648117;85;21045;-61
2022/01/09 05:27:38;;;;;;;21.10;13.97;;;;;;;-2.04;80.11;99926.03;1651770;85;21108;-60
2022/01/09 05:30:06;;;;;;;21.80;14.63;;;;;;;-2.09;80.47;99915.09;1655984;85;21069;-66
2022/01/09 05:32:34;;;;;;;18.20;11.63;;;;;;;-2.08;80.58;99912.38;1640206;85;21012;-62
2022/01/09 05:35:01;;;;;;;19.57;12.53;;;;;;;-2.05;80.74;99896.96;1647488;85;21044;-62
2022/01/09 05:37:27;;;;;;;21.93;13.20;;;;;;;-2.03;80.51;99897.67;1635532;85;21050;-62
2022/01/09 05:39:53;;;;;;;19.35;14.15;;;;;;;-2.06;80.53;99897.41;1649547;85;21530;-66
2022/01/09 05:42:19;;;;;;;20.80;14.33;;;;;;;-2.02;80.44;99891.48;1620201;86;21097;-61
2022/01/09 05:44:47;;;;;;;20.50;15.23;;;;;;;-2.00;80.36;99891.73;1604297;87;21041;-62
2022/01/09 05:47:13;;;;;;;18.50;12.97;;;;;;;-1.98;80.21;99875.47;1661109;84;21117;-61
2022/01/09 05:49:39;;;;;;;24.60;16.82;;;;;;;-1.97;80.04;99884.95;1671140;84;21046;-62
2022/01/09 05:52:07;;;;;;;22.87;15.43;;;;;;;-1.96;80.04;99887.08;1665586;84;21093;-62
2022/01/09 05:54:32;;;;;;;25.97;15.07;;;;;;;-1.91;80.00;99890.66;1673233;84;21501;-62
2022/01/09 05:56:58;;;;;;;23.10;15.43;;;;;;;-1.88;79.81;99882.59;1617528;84;21059;-62
2022/01/09 05:59:24;;;;;;;23.27;14.58;;;;;;;-1.91;79.81;99881.03;1680477;84;21082;-63
2022/01/09 06:01:51;;;;;;;20.77;15.83;;;;;;;-1.96;80.01;99863.57;1679115;84;21117;-64
2022/01/09 06:04:17;;;;;;;29.05;16.25;;;;;;;-1.99;80.05;99872.97;1661387;84;21010;-63
2022/01/09 06:06:43;;;;;;;27.37;17.85;;;;;;;-2.04;80.58;99889.47;1670478;84;21078;-62
2022/01/09 06:09:10;;;;;;;26.12;17.20;;;;;;;-2.13;80.78;99879.24;1672017;84;21501;-62
2022/01/09 06:11:37;;;;;;;28.37;17.50;;;;;;;-2.20;81.37;99880.69;1680484;82;21041;-62
2022/01/09 06:14:03;;;;;;;25.37;15.55;;;;;;;-2.24;81.72;99877.48;1671599;84;20994;-63
2022/01/09 06:16:31;;;;;;;25.57;17.37;;;;;;;-2.27;81.86;99877.70;1670439;84;21097;-62
2022/01/09 06:18:57;;;;;;;24.80;17.52;;;;;;;-2.27;81.87;99876.88;1664377;84;21242;-63
2022/01/09 06:21:26;;;;;;;25.23;17.07;;;;;;;-2.28;81.79;99873.44;1661196;84;21002;-61
2022/01/09 06:23:53;;;;;;;23.27;16.73;;;;;;;-2.28;81.77;99862.14;1667564;84;21532;-61
2022/01/09 06:26:19;;;;;;;;;;;;;;;-2.25;81.76;99873.67;1675992;84;20963;-62
2022/01/09 06:28:45;;;;;;;24.20;17.43;;;;;;;-2.19;81.57;99865.36;1676257;84;20109;-61
2022/01/09 06:31:11;;;;;;;25.92;17.82;;;;;;;-2.19;81.52;99862.27;1669561;84;21014;-64
2022/01/09 06:33:37;;;;;;;;;;;;;;;-2.12;81.42;99857.90;1613339;86;21035;-59
2022/01/09 06:36:04;;;;;;;24.77;15.03;;;;;;;-2.05;81.20;99847.34;1618888;87;20164;-63
2022/01/09 06:38:31;;;;;;;28.27;17.03;;;;;;;-2.10;81.13;99846.38;1636305;86;21665;-67
2022/01/09 06:40:57;;;;;;;23.65;17.25;;;;;;;-2.08;81.17;99853.61;1635226;86;21025;-62
2022/01/09 06:43:23;;;;;;;25.45;16.97;;;;;;;-2.03;81.07;99853.27;1639725;86;21497;-61
2022/01/09 06:45:49;;;;;;;27.77;18.75;;;;;;;-1.98;81.05;99845.44;1641450;86;21000;-62
2022/01/09 06:48:17;;;;;;;25.03;16.87;;;;;;;-1.93;80.92;99860.73;1643810;84;21131;-65
2022/01/09 06:50:43;;;;;;;26.35;18.00;;;;;;;-1.90;80.66;99850.50;1651524;85;21048;-61
2022/01/09 06:53:09;;;;;;;25.85;18.40;;;;;;;-1.93;80.64;99845.06;1652519;85;21005;-63
2022/01/09 06:55:36;;;;;;;30.10;17.70;;;;;;;-1.95;80.63;99846.96;1640236;85;21016;-67
2022/01/09 06:58:03;;;;;;;28.00;19.03;;;;;;;-2.01;80.78;99841.74;1643432;86;21542;-62
2022/01/09 07:00:29;;;;;;;31.90;19.00;;;;;;;-2.01;80.95;99830.47;1644303;85;21051;-74
2022/01/09 07:02:56;;;;;;;28.38;17.62;;;;;;;-1.97;81.03;99843.16;1654187;85;21104;-63
2022/01/09 07:05:22;;;;;;;31.55;19.12;;;;;;;-1.92;80.92;99837.59;1648414;85;21068;-65
2022/01/09 07:07:49;;;;;;;29.12;19.40;;;;;;;-1.92;80.83;99836.28;1654273;85;21024;-63
2022/01/09 07:10:15;;;;;;;30.80;20.60;;;;;;;-1.88;80.81;99836.39;1643278;85;21663;-62
2022/01/09 07:12:43;;;;;;;29.63;16.73;;;;;;;-1.89;80.64;99844.34;1651961;85;21005;-62
2022/01/09 07:15:10;;;;;;;31.95;20.12;;;;;;;-2.02;81.02;99837.94;1659402;84;21009;-62
2022/01/09 07:17:36;;;;;;;26.60;17.87;;;;;;;-2.05;81.14;99836.89;1647239;85;21087;-62
2022/01/09 07:20:04;;;;;;;29.98;18.02;;;;;;;-2.05;81.34;99831.67;1648523;85;21041;-61
2022/01/09 07:22:31;;;;;;;29.27;17.90;;;;;;;-2.09;81.45;99839.36;1662016;84;21063;-61
2022/01/09 07:24:58;;;;;;;29.25;19.40;;;;;;;-2.10;81.50;99832.49;1681038;84;21473;-62
2022/01/09 07:27:23;;;;;;;30.43;20.37;;;;;;;-2.14;81.64;99827.16;1684752;84;21063;-59
2022/01/09 07:29:50;;;;;;;25.15;16.60;;;;;;;-2.13;81.77;99837.94;1680965;84;21067;-63
2022/01/09 07:32:16;;;;;;;25.82;17.37;;;;;;;-2.17;81.75;99826.45;1676168;84;21135;-60
2022/01/09 07:34:42;;;;;;;28.90;18.80;;;;;;;-2.14;81.79;99818.84;1684168;84;21008;-62
2022/01/09 07:37:08;;;;;;;28.57;17.27;;;;;;;-2.09;81.77;99811.94;1682541;84;21054;-62
2022/01/09 07:39:34;;;;;;;21.37;16.90;;;;;;;-2.05;81.75;99810.29;1679236;84;21627;-61
2022/01/09 07:42:01;;;;;;;23.15;16.02;;;;;;;-1.97;81.67;99804.46;1682871;84;21078;-61
2022/01/09 07:44:27;;;;;;;29.52;16.60;;;;;;;-1.89;81.28;99805.16;1681036;84;21047;-62
2022/01/09 07:46:53;;;;;;;25.97;16.35;;;;;;;-1.92;81.22;99792.33;1677540;84;21615;-62
2022/01/09 07:49:19;;;;;;;26.70;16.50;;;;;;;-1.93;81.22;99803.27;1686586;84;21450;-62
2022/01/09 07:51:46;;;;;;;23.90;17.35;;;;;;;-1.92;81.29;99791.88;1688861;84;20988;-61
2022/01/09 07:54:12;;;;;;;22.77;14.68;;;;;;;-1.88;81.32;99790.67;1679143;84;21092;-62
2022/01/09 07:56:39;;;;;;;30.43;16.07;;;;;;;-1.93;81.36;99773.22;1690051;84;21027;-61
2022/01/09 07:59:06;;;;;;;25.00;15.25;;;;;;;-1.94;81.44;99781.17;1687495;84;21166;-62
2022/01/09 08:01:33;;;;;;;24.97;16.17;;;;;;;-1.93;81.40;99787.59;1686216;84;21087;-63
2022/01/09 08:03:59;;;;;;;28.38;18.25;;;;;;;-1.92;81.44;99765.76;1686034;84;21031;-63
2022/01/09 08:06:25;;;;;;;;;;;;;;;-1.89;81.51;99773.81;1689737;84;21024;-61
2022/01/09 08:08:52;;;;;;;28.33;16.77;;;;;;;-1.85;81.41;99759.06;1684249;84;20472;-61
2022/01/09 08:11:18;;;;;;;27.32;16.67;;;;;;;-1.79;81.50;99776.03;1680502;84;21511;-61
2022/01/09 08:13:44;;;;;;;22.77;16.40;;;;;;;-1.81;81.01;99751.36;1681439;84;21024;-60
2022/01/09 08:16:11;;;;;;;27.30;17.20;;;;;;;-1.89;81.25;99765.49;1679181;84;21019;-62
2022/01/09 08:18:37;;;;;;;22.62;15.88;;;;;;;-1.86;81.25;99760.52;1679096;84;21019;-62
2022/01/09 08:21:03;;;;;;;22.52;15.15;;;;;;;-1.81;81.23;99755.28;1682393;84;21591;-62
2022/01/09 08:23:29;;;;;;;22.77;15.03;;;;;;;-1.77;81.08;99758.48;1682100;84;21000;-61
2022/01/09 08:25:55;;;;;;;29.82;15.95;;;;;;;-1.73;80.96;99762.95;1674677;84;21102;-60
2022/01/09 08:28:21;;;;;;;21.45;14.38;;;;;;;-1.72;80.90;99756.30;1685007;84;21646;-62
2022/01/09 08:30:48;;;;;;;27.93;15.45;;;;;;;-1.79;80.94;99746.84;1684094;84;20981;-63
2022/01/09 08:33:14;;;;;;;22.22;15.08;;;;;;;-1.76;81.14;99740.04;1680219;84;21067;-63
2022/01/09 08:35:40;;;;;;;23.22;14.58;;;;;;;-1.69;81.01;99744.80;1680617;84;21279;-62
2022/01/09 08:38:07;;;;;;;20.80;14.23;;;;;;;-1.68;80.88;99747.74;1683405;84;21014;-62
2022/01/09 08:40:33;;;;;;;21.40;13.65;;;;;;;-1.62;80.70;99747.23;1686186;84;21032;-62
2022/01/09 08:42:59;;;;;;;23.07;15.60;;;;;;;-1.59;80.46;99746.52;1672908;84;21132;-62
2022/01/09 08:45:25;;;;;;;24.70;16.15;;;;;;;-1.59;80.41;99745.20;1697755;84;21431;-60
2022/01/09 08:47:51;;;;;;;26.40;16.17;;;;;;;-1.59;80.33;99740.47;1677314;84;21119;-61
2022/01/09 08:50:20;;;;;;;22.27;15.38;;;;;;;-1.67;80.65;99738.48;1692191;84;21091;-61
2022/01/09 08:52:46;;;;;;;26.27;15.80;;;;;;;-1.65;80.72;99723.98;1692451;84;21018;-63
2022/01/09 08:55:13;;;;;;;28.62;17.27;;;;;;;-1.68;80.95;99727.66;1696863;83;21020;-62
2022/01/09 08:58:33;;;;;;;24.33;16.37;;;;;;;-1.62;81.10;99722.41;1812681;78;22095;-64
2022/01/09 09:01:01;;;;;;;25.77;16.63;;;;;;;-1.61;81.05;99719.67;1747008;80;21038;-62
2022/01/09 09:03:27;;;;;;;24.15;15.45;;;;;;;-1.59;80.98;99712.53;1701145;83;21062;-63
2022/01/09 09:05:53;;;;;;;26.55;16.55;;;;;;;-1.51;80.92;99713.21;1697889;83;21001;-63
2022/01/09 09:08:19;;;;;;;;;;;;;;;-1.51;80.89;99702.76;1705975;83;21098;-61
2022/01/09 09:10:46;;;;;;;30.63;16.83;;;;;;;-1.44;80.91;99697.38;1702510;83;20168;-61
2022/01/09 09:13:12;;;;;;;27.90;17.10;;;;;;;-1.37;80.91;99695.10;1729480;81;21014;-62
2022/01/09 09:15:39;;;;;;;27.42;17.70;;;;;;;-1.38;80.49;99706.50;1736433;82;21201;-62
2022/01/09 09:18:05;;;;;;;26.12;16.57;;;;;;;-1.36;80.43;99699.36;1734119;81;21098;-63
2022/01/09 09:20:32;;;;;;;22.30;14.15;;;;;;;-1.33;80.38;99696.50;1732240;82;21104;-63
2022/01/09 09:22:58;;;;;;;24.27;17.17;;;;;;;-1.30;80.39;99699.33;1732605;82;21386;-63
2022/01/09 09:25:24;;;;;;;24.30;16.57;;;;;;;-1.27;80.35;99688.63;1731706;82;21542;-61
2022/01/09 09:27:50;;;;;;;26.80;16.73;;;;;;;-1.21;80.46;99688.10;1731569;82;22142;-62
2022/01/09 09:30:17;;;;;;;27.37;17.57;;;;;;;-1.17;80.26;99676.42;1729606;82;21276;-62
2022/01/09 09:32:44;;;;;;;24.63;16.30;;;;;;;-1.21;80.27;99685.48;1718806;82;21073;-61
2022/01/09 09:35:12;;;;;;;26.70;17.05;;;;;;;-1.19;80.28;99660.88;1685823;82;21115;-62
2022/01/09 09:37:40;;;;;;;26.10;17.83;;;;;;;-1.18;80.10;99663.83;1678653;84;21022;-60
2022/01/09 09:40:08;;;;;;;26.23;16.13;;;;;;;-1.15;79.95;99664.04;1679966;84;21075;-59
2022/01/09 09:42:35;;;;;;;24.17;16.00;;;;;;;-1.19;80.30;99654.34;1680829;84;21589;-59
2022/01/09 09:45:06;;;;;;;28.43;18.40;;;;;;;-1.32;80.81;99645.03;1703997;82;21021;-61
2022/01/09 09:47:35;;;;;;;27.03;15.53;;;;;;;-1.35;81.25;99645.30;1738942;82;21025;-62
2022/01/09 09:50:06;;;;;;;26.93;17.80;;;;;;;-1.38;81.75;99647.67;1737254;81;21534;-63
2022/01/09 09:52:34;;;;;;;28.03;16.67;;;;;;;-1.31;81.85;99638.37;1703284;82;21077;-61
2022/01/09 09:55:00;;;;;;;29.70;19.95;;;;;;;-1.22;81.67;99628.93;1706819;82;20991;-62
2022/01/09 09:57:28;;;;;;;23.67;17.10;;;;;;;-1.18;81.37;99631.62;1670293;84;21042;-60
2022/01/09 10:00:14;;;;;;;27.48;19.75;;;;;;;-1.26;81.93;99631.43;1707680;82;21007;-60
2022/01/09 10:02:53;;;;;;;38.47;18.90;;;;;;;-1.21;83.08;99625.34;1705429;82;21052;-60
2022/01/09 10:05:24;;;;;;;30.30;19.90;;;;;;;-1.15;83.35;99621.38;1666031;84;21077;-68
2022/01/09 10:07:58;;;;;;;31.30;20.20;;;;;;;-1.13;83.10;99624.23;1679415;84;21092;-67
2022/01/09 10:10:33;;;;;;;26.23;19.57;;;;;;;-1.11;83.26;99623.62;1675528;85;21068;-67
2022/01/09 10:13:10;;;;;;;27.65;18.52;;;;;;;-1.06;83.56;99620.59;1648386;84;21067;-69
2022/01/09 10:16:01;;;;;;;28.77;20.80;;;;;;;-0.97;83.62;99626.84;1683631;84;21837;-67
2022/01/09 10:18:53;;;;;;;32.13;20.77;;;;;;;-0.88;83.38;99628.66;1687871;84;21040;-69
2022/01/09 10:21:20;;;;;;;26.73;16.15;;;;;;;-0.81;82.62;99628.45;1682747;83;21051;-70
2022/01/09 10:24:04;;;;;;;31.97;21.13;;;;;;;-0.82;81.70;99631.56;1661054;85;21054;-69
2022/01/09 10:26:39;;;;;;;29.80;18.53;;;;;;;-0.92;81.07;99616.78;1649985;85;21012;-69
2022/01/09 10:29:08;;;;;;;31.73;20.03;;;;;;;-0.95;81.42;99615.76;1613911;87;21603;-69
2022/01/09 10:31:48;;;;;;;31.47;20.70;;;;;;;-0.97;81.18;99611.14;1641241;85;21600;-68
2022/01/09 10:34:16;;;;;;;31.80;20.93;;;;;;;-1.00;81.44;99606.52;1648710;85;21043;-67
2022/01/09 10:36:51;;;;;;;32.63;21.27;;;;;;;-0.95;81.60;99599.58;1656151;85;21530;-67
2022/01/09 10:39:30;;;;;;;33.23;20.93;;;;;;;-0.97;81.19;99599.37;1634032;86;21020;-66
2022/01/09 10:42:04;;;;;;;28.17;19.47;;;;;;;-0.93;81.25;99601.57;1653179;85;20979;-66
2022/01/09 10:44:35;;;;;;;32.47;20.80;;;;;;;-0.90;80.85;99599.19;1642290;85;21018;-66
2022/01/09 10:47:09;;;;;;;30.17;20.47;;;;;;;-0.89;80.80;99587.75;1660057;85;21053;-65
2022/01/09 10:49:49;;;;;;;30.17;20.37;;;;;;;-0.85;81.20;99583.44;1656625;85;21016;-65
2022/01/09 10:52:25;;;;;;;29.90;20.63;;;;;;;-0.74;81.28;99578.55;1648507;85;21049;-65
2022/01/09 10:54:55;;;;;;;29.87;17.53;;;;;;;-0.66;80.82;99574.81;1617233;87;21088;-65
2022/01/09 10:57:32;;;;;;;31.17;19.80;;;;;;;-0.65;79.93;99563.84;1618183;86;21132;-57
2022/01/09 11:00:15;;;;;;;30.23;18.77;;;;;;;-0.62;79.68;99565.72;1604352;87;21118;-57
2022/01/09 11:02:45;;;;;;;25.83;19.07;;;;;;;-0.65;79.50;99565.16;1657233;84;21012;-58
2022/01/09 11:05:12;;;;;;;32.80;20.13;;;;;;;-0.72;79.63;99574.02;1653714;84;21039;-58
2022/01/09 11:07:40;;;;;;;30.20;19.47;;;;;;;-0.73;79.87;99563.70;1663679;84;21035;-59
2022/01/09 11:10:09;;;;;;;29.93;20.73;;;;;;;-0.70;80.01;99561.63;1668654;84;20998;-58
2022/01/09 11:12:46;;;;;;;24.27;16.10;;;;;;;-0.70;79.82;99565.55;1635326;86;20985;-58
2022/01/09 11:15:09;;;;;;;31.90;20.03;;;;;;;-0.69;80.17;99563.78;1605747;88;21046;-57
2022/01/09 11:17:37;;;;;;;31.20;20.33;;;;;;;-0.70;79.89;99560.31;1659817;84;21084;-58
2022/01/09 11:20:06;;;;;;;30.17;18.37;;;;;;;-0.73;80.27;99566.33;1671910;84;21113;-58
2022/01/09 11:22:37;;;;;;;32.10;19.33;;;;;;;-0.74;80.30;99567.27;1668176;84;21048;-57
2022/01/09 11:25:23;;;;;;;27.53;19.17;;;;;;;-0.75;80.48;99557.75;1672062;85;21104;-58
2022/01/09 11:28:12;;;;;;;27.70;18.87;;;;;;;-0.72;80.36;99560.93;1673229;84;21241;-58